Time;durP1;ratioP1;P1;durP2;ratioP2;P2;SDS_P1;SDS_P2;PMS_P1;PMS_P2;Temp;Humidity;BMP_temperature;BMP_pressure;BME280_temperature;BME280_humidity;BME280_pressure;Samples;Min_cycle;Max_cycle;Signal;HPM_P1;HPM_P2
2022/12/12 00:00:50;;;;;;;62.63;21.02;;;-3.20;99.90;;;;;;5047095;28;20041;-68
2022/12/12 00:03:16;;;;;;;64.47;22.60;;;-3.20;99.90;;;;;;5047792;28;20460;-67
2022/12/12 00:05:42;;;;;;;64.10;22.42;;;-3.10;99.90;;;;;;5047024;28;20128;-69
2022/12/12 00:08:08;;;;;;;62.65;22.45;;;-3.20;99.90;;;;;;5045623;28;20522;-68
2022/12/12 00:10:34;;;;;;;65.68;23.73;;;-3.10;99.90;;;;;;5009335;28;20041;-68
2022/12/12 00:13:01;;;;;;;78.63;25.90;;;-3.20;99.90;;;;;;5027384;28;20110;-68
2022/12/12 00:15:28;;;;;;;64.63;23.25;;;-3.30;99.90;;;;;;5027002;28;20041;-68
2022/12/12 00:17:55;;;;;;;63.35;22.13;;;-3.30;99.90;;;;;;5026660;28;20143;-69
2022/12/12 00:20:21;;;;;;;58.20;22.63;;;-3.40;99.90;;;;;;5026698;28;20064;-68
2022/12/12 00:22:46;;;;;;;67.78;23.35;;;-3.50;99.90;;;;;;5027430;28;20050;-68
2022/12/12 00:25:12;;;;;;;69.13;23.27;;;-3.30;99.90;;;;;;5009076;28;20044;-69
2022/12/12 00:27:38;;;;;;;63.40;23.65;;;-3.30;99.90;;;;;;5026755;28;20049;-67
2022/12/12 00:30:05;;;;;;;69.07;24.45;;;-3.10;99.90;;;;;;5027316;28;20038;-68
2022/12/12 00:32:32;;;;;;;77.32;25.70;;;-3.20;99.90;;;;;;5025134;28;20049;-69
2022/12/12 00:34:57;;;;;;;76.75;21.65;;;-3.20;99.90;;;;;;5026240;28;20047;-68
2022/12/12 00:37:23;;;;;;;57.20;22.13;;;-3.40;99.90;;;;;;5026269;28;20124;-67
2022/12/12 00:39:52;;;;;;;74.03;23.73;;;-3.50;99.90;;;;;;5027142;28;20496;-69
2022/12/12 00:42:18;;;;;;;111.82;22.85;;;-3.40;99.90;;;;;;5026577;28;20049;-68
2022/12/12 00:44:43;;;;;;;68.18;24.98;;;-3.40;99.90;;;;;;5026319;28;20518;-68
2022/12/12 00:47:09;;;;;;;70.13;25.15;;;-3.40;99.90;;;;;;5026847;28;20399;-68
2022/12/12 00:49:35;;;;;;;61.65;23.05;;;-3.50;99.90;;;;;;5027444;28;20525;-67
2022/12/12 00:52:01;;;;;;;62.53;21.27;;;-3.30;99.90;;;;;;5026448;28;20052;-68
2022/12/12 00:54:26;;;;;;;61.78;21.20;;;-3.30;99.90;;;;;;5028368;28;20037;-67
2022/12/12 00:56:52;;;;;;;58.08;21.33;;;-3.30;99.90;;;;;;5030538;28;20029;-67
2022/12/12 00:59:18;;;;;;;65.18;22.00;;;-3.30;99.90;;;;;;5030040;28;20164;-68
2022/12/12 01:01:45;;;;;;;70.78;25.13;;;-3.20;99.90;;;;;;5030113;28;20041;-68
2022/12/12 01:04:11;;;;;;;62.40;22.38;;;-3.40;99.90;;;;;;5030259;28;20099;-67
2022/12/12 01:06:36;;;;;;;63.63;24.70;;;-3.40;99.90;;;;;;5029667;28;20461;-67
2022/12/12 01:09:03;;;;;;;62.20;22.85;;;-3.40;99.90;;;;;;5030160;28;20037;-67
2022/12/12 01:11:28;;;;;;;62.50;21.85;;;-3.30;99.90;;;;;;5042141;28;20045;-67
2022/12/12 01:13:55;;;;;;;60.72;22.65;;;-3.30;99.90;;;;;;5012362;28;20046;-67
2022/12/12 01:16:22;;;;;;;63.85;23.10;;;-3.30;99.90;;;;;;5021731;28;20036;-67
2022/12/12 01:18:47;;;;;;;50.72;20.30;;;-3.20;99.90;;;;;;5049603;28;20045;-67
2022/12/12 01:21:15;;;;;;;61.83;21.85;;;-3.50;99.90;;;;;;5031150;28;20120;-68
2022/12/12 01:23:42;;;;;;;59.47;20.67;;;-3.40;99.90;;;;;;5030208;28;20053;-68
2022/12/12 01:26:11;;;;;;;57.22;21.95;;;-3.50;99.90;;;;;;5030142;28;20026;-67
2022/12/12 01:28:37;;;;;;;73.85;25.05;;;-3.60;99.90;;;;;;5026605;28;20291;-67
2022/12/12 01:31:03;;;;;;;65.63;23.75;;;-3.30;99.90;;;;;;5029510;28;20041;-67
2022/12/12 01:33:29;;;;;;;65.20;23.05;;;-3.20;99.90;;;;;;5029314;28;20110;-67
2022/12/12 01:35:55;;;;;;;61.42;23.02;;;-3.20;99.90;;;;;;5029905;28;20128;-66
2022/12/12 01:38:23;;;;;;;65.30;23.10;;;-3.40;99.90;;;;;;5029549;28;20096;-66
2022/12/12 01:40:50;;;;;;;65.53;23.55;;;-3.40;99.90;;;;;;5029568;28;20669;-66
2022/12/12 01:43:17;;;;;;;86.45;34.70;;;-3.30;99.90;;;;;;5029879;28;20517;-66
2022/12/12 01:46:21;;;;;;;66.32;23.83;;;-3.30;99.90;;;;;;5029996;28;20044;-69
2022/12/12 01:49:14;;;;;;;67.10;24.10;;;-3.20;99.90;;;;;;5028998;28;20041;-66
2022/12/12 01:51:41;;;;;;;65.80;23.13;;;-3.10;99.90;;;;;;5029686;28;20042;-67
2022/12/12 01:54:12;;;;;;;64.90;23.48;;;-3.10;99.90;;;;;;5029405;28;20055;-66
2022/12/12 01:56:39;;;;;;;59.15;21.90;;;-3.10;99.90;;;;;;5030250;28;20049;-66
2022/12/12 01:59:08;;;;;;;67.80;22.95;;;-3.10;99.90;;;;;;5029196;28;20444;-66
2022/12/12 02:01:36;;;;;;;73.50;24.42;;;-3.10;99.90;;;;;;5028642;28;20041;-67
2022/12/12 02:04:02;;;;;;;63.60;23.85;;;-3.10;99.90;;;;;;5037406;28;20045;-66
2022/12/12 02:06:29;;;;;;;68.63;23.95;;;-3.10;99.90;;;;;;5047679;28;20427;-66
2022/12/12 02:08:59;;;;;;;76.05;26.05;;;-3.20;99.90;;;;;;5048011;28;20047;-66
2022/12/12 02:11:29;;;;;;;63.25;22.85;;;-3.20;99.90;;;;;;5028988;28;20061;-67
2022/12/12 02:13:56;;;;;;;68.90;24.27;;;-3.30;99.90;;;;;;5028699;28;20052;-67
2022/12/12 02:16:25;;;;;;;71.50;25.13;;;-3.20;99.90;;;;;;5028920;28;20045;-66
2022/12/12 02:18:50;;;;;;;72.40;26.73;;;-3.20;99.90;;;;;;5010823;28;20721;-67
2022/12/12 02:21:51;;;;;;;70.00;24.83;;;-3.30;99.90;;;;;;5029325;28;20049;-66
2022/12/12 02:24:25;;;;;;;70.93;24.65;;;-3.30;99.90;;;;;;4995943;28;20053;-67
2022/12/12 02:26:51;;;;;;;67.57;26.15;;;-3.20;99.90;;;;;;5026605;28;20085;-67
2022/12/12 02:29:49;;;;;;;73.28;26.70;;;-3.20;99.90;;;;;;5033764;28;20037;-67
2022/12/12 02:32:25;;;;;;;71.22;25.50;;;-3.30;99.90;;;;;;5022292;28;20106;-67
2022/12/12 02:35:22;;;;;;;67.45;24.70;;;-3.30;99.90;;;;;;5042345;28;20040;-67
2022/12/12 02:38:06;;;;;;;73.22;26.33;;;-3.20;99.90;;;;;;5021549;28;20132;-68
2022/12/12 02:40:53;;;;;;;64.20;25.63;;;-3.10;99.90;;;;;;5032487;28;20362;-68
2022/12/12 02:43:44;;;;;;;66.05;25.00;;;-3.20;99.90;;;;;;5036762;28;20048;-68
2022/12/12 02:46:16;;;;;;;;;;;-3.20;99.90;;;;;;5033221;28;20536;-67
2022/12/12 02:48:55;;;;;;;68.57;24.55;;;-3.20;99.90;;;;;;5048280;28;20003;-67
2022/12/12 02:51:22;;;;;;;76.30;26.92;;;-3.10;99.90;;;;;;5029866;28;20517;-67
2022/12/12 02:53:47;;;;;;;72.35;24.83;;;-3.10;99.90;;;;;;5047151;28;20108;-67
2022/12/12 02:56:46;;;;;;;76.45;26.50;;;-3.20;99.90;;;;;;5038405;28;20116;-67
2022/12/12 02:59:36;;;;;;;78.68;27.23;;;-3.20;99.90;;;;;;5025790;28;20079;-67
2022/12/12 03:02:32;;;;;;;78.22;26.02;;;-3.10;99.90;;;;;;5028033;28;20088;-67
2022/12/12 03:07:57;;;;;;;81.25;27.75;;;-3.10;99.90;;;;;;5027606;28;20071;-67
2022/12/12 03:10:47;;;;;;;72.35;27.45;;;-3.10;99.90;;;;;;5027622;28;20081;-67
2022/12/12 03:13:25;;;;;;;78.70;27.20;;;-3.20;99.90;;;;;;5027632;28;20041;-67
2022/12/12 03:16:15;;;;;;;79.30;26.70;;;-3.30;99.90;;;;;;5010481;28;20033;-67
2022/12/12 03:19:07;;;;;;;76.20;26.75;;;-3.20;99.90;;;;;;5031998;28;20080;-67
2022/12/12 03:21:55;;;;;;;69.88;26.52;;;-3.20;99.90;;;;;;5025815;28;20107;-67
2022/12/12 03:24:38;;;;;;;65.43;25.67;;;-3.10;99.90;;;;;;5036972;28;20045;-68
2022/12/12 03:27:26;;;;;;;74.20;26.33;;;-3.10;99.90;;;;;;5028909;28;20047;-67
2022/12/12 03:30:00;;;;;;;73.43;23.88;;;-3.00;99.90;;;;;;5029681;28;20488;-67
2022/12/12 03:32:46;;;;;;;67.35;24.58;;;-3.10;99.90;;;;;;5029770;28;20037;-67
2022/12/12 03:35:36;;;;;;;70.72;25.48;;;-3.10;99.90;;;;;;5016316;28;20045;-68
2022/12/12 03:38:09;;;;;;;70.83;25.57;;;-3.10;99.90;;;;;;5027846;28;20045;-69
2022/12/12 03:40:55;;;;;;;73.30;26.50;;;-3.00;99.90;;;;;;5027957;28;20396;-67
2022/12/12 03:43:23;;;;;;;84.10;26.33;;;-3.00;99.90;;;;;;5027456;28;20412;-67
2022/12/12 03:46:14;;;;;;;71.28;25.70;;;-2.90;99.90;;;;;;5035657;28;20049;-68
2022/12/12 03:48:43;;;;;;;;;;;-2.90;99.90;;;;;;5028070;28;20041;-68
2022/12/12 03:51:29;;;;;;;77.65;26.05;;;-3.00;99.90;;;;;;5027141;28;19936;-67
2022/12/12 03:54:08;;;;;;;79.95;27.45;;;-2.90;99.90;;;;;;5013935;28;20040;-67
2022/12/12 03:57:11;;;;;;;74.13;26.17;;;-2.90;99.90;;;;;;5047211;28;20036;-69
2022/12/12 04:00:05;;;;;;;75.75;25.63;;;-2.90;99.90;;;;;;5021578;28;20041;-67
2022/12/12 04:02:42;;;;;;;80.28;28.00;;;-2.90;99.90;;;;;;5026488;28;20127;-67
2022/12/12 04:05:36;;;;;;;70.13;26.45;;;-2.90;99.90;;;;;;5041245;28;20051;-67
2022/12/12 04:08:13;;;;;;;72.75;26.60;;;-2.90;99.90;;;;;;5036796;28;20682;-67
2022/12/12 04:14:18;;;;;;;69.50;24.05;;;-3.00;99.90;;;;;;5028134;28;20102;-67
2022/12/12 04:16:48;;;;;;;74.97;26.88;;;-3.00;99.90;;;;;;5009261;28;20570;-66
2022/12/12 04:23:14;;;;;;;78.47;27.23;;;-3.00;99.90;;;;;;5027698;28;20041;-67
2022/12/12 04:25:14;;;;;;;76.22;26.30;;;-3.30;99.90;;;;;;5046563;28;20451;-67
2022/12/12 04:27:49;;;;;;;81.50;28.90;;;-3.20;99.90;;;;;;5047070;28;20033;-67
2022/12/12 04:30:15;;;;;;;77.22;26.63;;;-3.10;99.90;;;;;;5050002;28;20496;-67
2022/12/12 04:32:56;;;;;;;78.43;26.55;;;-3.10;99.90;;;;;;5032361;28;20421;-68
2022/12/12 04:35:37;;;;;;;69.20;24.75;;;-3.10;99.90;;;;;;5030932;28;20436;-68
2022/12/12 04:38:12;;;;;;;73.70;25.27;;;-3.00;99.90;;;;;;5030524;28;20049;-68
2022/12/12 04:40:42;;;;;;;67.72;25.23;;;-3.10;99.90;;;;;;5030211;28;20073;-67
2022/12/12 04:43:27;;;;;;;75.97;24.63;;;-3.00;99.90;;;;;;5015362;28;20111;-68
2022/12/12 04:45:59;;;;;;;66.82;24.92;;;-3.10;99.90;;;;;;5030272;28;20124;-67
2022/12/12 04:48:33;;;;;;;79.53;27.50;;;-3.00;99.90;;;;;;5030864;28;20460;-67
2022/12/12 04:51:00;;;;;;;73.50;25.52;;;-3.00;99.90;;;;;;5049954;28;20055;-67
2022/12/12 04:53:32;;;;;;;77.03;26.98;;;-3.00;99.90;;;;;;5050034;28;20037;-67
2022/12/12 04:56:02;;;;;;;74.35;26.10;;;-3.00;99.90;;;;;;5050232;28;20048;-67
2022/12/12 04:58:28;;;;;;;66.15;24.08;;;-3.00;99.90;;;;;;5050275;28;20527;-67
2022/12/12 05:01:13;;;;;;;67.28;24.95;;;-3.20;99.90;;;;;;5028808;28;20052;-67
2022/12/12 05:03:51;;;;;;;72.55;27.05;;;-3.00;99.90;;;;;;5043791;28;20084;-67
2022/12/12 05:06:25;;;;;;;65.65;24.13;;;-2.90;99.90;;;;;;5050154;28;20040;-67
2022/12/12 05:08:53;;;;;;;72.57;25.35;;;-2.90;99.90;;;;;;5049601;28;20458;-67
2022/12/12 05:11:21;;;;;;;76.43;25.95;;;-2.90;99.90;;;;;;5050679;28;20029;-68
2022/12/12 05:13:49;;;;;;;67.85;24.08;;;-3.00;99.90;;;;;;5032376;28;20037;-67
2022/12/12 05:16:25;;;;;;;72.53;24.83;;;-3.00;99.90;;;;;;5029855;28;20069;-67
2022/12/12 05:18:51;;;;;;;70.15;24.67;;;-3.10;99.90;;;;;;5029581;28;20038;-68
2022/12/12 05:21:17;;;;;;;64.82;24.40;;;-3.10;99.90;;;;;;5020728;28;20044;-67
2022/12/12 05:23:43;;;;;;;65.75;24.00;;;-3.10;99.90;;;;;;5049909;28;20049;-67
2022/12/12 05:26:22;;;;;;;71.05;23.33;;;-3.10;99.90;;;;;;5049935;28;20047;-68
2022/12/12 05:28:48;;;;;;;71.40;24.55;;;-3.30;99.90;;;;;;5031095;28;20045;-67
2022/12/12 05:31:14;;;;;;;65.40;24.95;;;-3.10;99.90;;;;;;5043025;28;20036;-67
2022/12/12 05:33:40;;;;;;;132.77;54.03;;;-3.10;99.90;;;;;;5011949;28;20037;-67
2022/12/12 05:36:06;;;;;;;65.47;26.10;;;-3.10;99.90;;;;;;5011982;28;20085;-67
2022/12/12 05:38:32;;;;;;;71.90;25.30;;;-3.10;99.90;;;;;;5011893;28;20042;-67
2022/12/12 05:40:58;;;;;;;65.90;24.75;;;-3.10;99.90;;;;;;5031894;28;20048;-67
2022/12/12 05:43:24;;;;;;;67.18;22.55;;;-3.00;99.90;;;;;;5033470;28;20424;-67
2022/12/12 05:45:49;;;;;;;65.05;24.17;;;-2.90;99.90;;;;;;5038413;28;20400;-67
2022/12/12 05:48:15;;;;;;;65.32;23.35;;;-2.90;99.90;;;;;;5035755;28;20048;-67
2022/12/12 05:50:41;;;;;;;60.45;23.23;;;-3.00;99.90;;;;;;5011504;28;20037;-67
2022/12/12 05:53:06;;;;;;;78.70;27.10;;;-3.00;99.90;;;;;;5024301;28;20048;-68
2022/12/12 05:55:32;;;;;;;61.80;23.52;;;-3.00;99.90;;;;;;5049626;28;20373;-67
2022/12/12 05:57:58;;;;;;;80.55;30.58;;;-3.00;99.90;;;;;;5040888;28;20554;-68
2022/12/12 06:00:24;;;;;;;73.32;24.30;;;-3.00;99.90;;;;;;5026792;28;20119;-67
2022/12/12 06:02:49;;;;;;;72.13;25.90;;;-2.90;99.90;;;;;;5043613;28;20049;-68
2022/12/12 06:05:15;;;;;;;93.75;35.05;;;-2.90;99.90;;;;;;5028295;28;20787;-68
2022/12/12 06:07:41;;;;;;;86.65;28.88;;;-2.90;99.90;;;;;;5029379;28;20508;-68
2022/12/12 06:10:07;;;;;;;69.45;24.58;;;-2.90;99.90;;;;;;5029887;28;20041;-67
2022/12/12 06:12:33;;;;;;;111.90;40.67;;;-2.90;99.90;;;;;;5048394;28;20138;-67
2022/12/12 06:14:59;;;;;;;111.50;40.22;;;-3.00;99.90;;;;;;5047188;28;20065;-68
2022/12/12 06:17:25;;;;;;;93.28;36.03;;;-2.90;99.90;;;;;;5046994;28;20571;-69
2022/12/12 06:19:51;;;;;;;140.40;54.08;;;-3.00;99.90;;;;;;5029741;28;20060;-67
2022/12/12 06:22:17;;;;;;;75.00;27.27;;;-3.00;99.90;;;;;;5048027;28;20055;-68
2022/12/12 06:24:43;;;;;;;68.82;27.23;;;-3.30;99.90;;;;;;5048354;28;20045;-67
2022/12/12 06:27:09;;;;;;;71.35;26.15;;;-3.30;99.90;;;;;;5047349;28;20119;-67
2022/12/12 06:29:35;;;;;;;77.90;30.23;;;-3.20;99.90;;;;;;5048814;28;20116;-67
2022/12/12 06:32:00;;;;;;;96.05;37.33;;;-3.20;99.90;;;;;;5048271;28;20067;-69
2022/12/12 06:34:26;;;;;;;62.28;21.25;;;-3.20;99.90;;;;;;5048122;28;20041;-69
2022/12/12 06:36:52;;;;;;;63.28;22.95;;;-3.20;99.90;;;;;;5048152;28;20048;-70
2022/12/12 06:39:18;;;;;;;63.25;22.52;;;-3.30;99.90;;;;;;5048573;28;20053;-70
2022/12/12 06:41:44;;;;;;;58.78;21.42;;;-3.40;99.90;;;;;;5030528;28;20116;-68
2022/12/12 06:44:09;;;;;;;69.13;25.67;;;-3.40;99.90;;;;;;5047714;28;20083;-68
2022/12/12 06:46:35;;;;;;;56.88;21.58;;;-3.30;99.90;;;;;;5048738;28;20102;-70
2022/12/12 06:49:05;;;;;;;65.55;24.50;;;-3.30;99.90;;;;;;5030066;28;20045;-67
2022/12/12 06:51:32;;;;;;;61.07;21.67;;;-3.30;99.90;;;;;;5047659;28;20532;-68
2022/12/12 06:53:58;;;;;;;55.53;20.65;;;-3.30;99.90;;;;;;5047933;28;20048;-71
2022/12/12 06:56:25;;;;;;;64.65;22.27;;;-3.40;99.90;;;;;;5048183;28;20044;-67
2022/12/12 06:58:51;;;;;;;58.88;20.98;;;-3.30;99.90;;;;;;5029093;28;20045;-70
2022/12/12 07:01:20;;;;;;;58.03;21.65;;;-3.20;99.90;;;;;;5025786;28;20116;-66
2022/12/12 07:03:47;;;;;;;61.38;21.83;;;-3.20;99.90;;;;;;5025095;28;20526;-66
2022/12/12 07:06:13;;;;;;;63.67;24.67;;;-3.10;99.90;;;;;;5023582;28;20647;-66
2022/12/12 07:08:39;;;;;;;56.97;20.75;;;-3.10;99.90;;;;;;5027435;28;20120;-67
2022/12/12 07:11:11;;;;;;;66.47;22.65;;;-3.20;99.90;;;;;;5008583;28;20045;-69
2022/12/12 07:13:37;;;;;;;64.07;21.58;;;-3.30;99.90;;;;;;5024410;28;20810;-70
2022/12/12 07:16:03;;;;;;;68.38;24.35;;;-3.60;99.90;;;;;;5026604;28;20080;-68
2022/12/12 07:18:29;;;;;;;60.63;21.95;;;-3.60;99.90;;;;;;5027372;28;20076;-72
2022/12/12 07:20:54;;;;;;;56.40;20.23;;;-3.60;99.90;;;;;;5027440;28;20038;-70
2022/12/12 07:23:20;;;;;;;47.20;18.95;;;-3.40;99.90;;;;;;5027132;28;20102;-67
2022/12/12 07:25:46;;;;;;;57.33;20.52;;;-3.50;99.90;;;;;;5027030;28;20045;-67
2022/12/12 07:28:13;;;;;;;55.67;20.33;;;-3.50;99.90;;;;;;5027947;28;20045;-66
2022/12/12 07:30:45;;;;;;;154.27;58.22;;;-3.40;99.90;;;;;;5024549;28;20073;-71
2022/12/12 07:33:13;;;;;;;164.85;63.65;;;-3.30;99.90;;;;;;5026044;28;20053;-71
2022/12/12 07:35:39;;;;;;;55.47;21.80;;;-3.50;99.90;;;;;;5026920;28;20041;-69
2022/12/12 07:38:06;;;;;;;60.97;18.98;;;-3.70;99.90;;;;;;5027551;28;20056;-69
2022/12/12 07:40:32;;;;;;;56.63;20.23;;;-3.70;99.90;;;;;;5027271;28;20030;-67
2022/12/12 07:42:59;;;;;;;64.05;20.35;;;-3.70;99.90;;;;;;5026776;28;20077;-67
2022/12/12 07:45:25;;;;;;;52.95;18.98;;;-3.70;99.90;;;;;;5026858;28;20068;-68
2022/12/12 07:47:51;;;;;;;57.30;18.73;;;-4.00;99.90;;;;;;5027649;28;20037;-70
2022/12/12 07:50:17;;;;;;;58.60;19.55;;;-3.90;99.90;;;;;;5009609;28;20041;-69
2022/12/12 07:52:43;;;;;;;50.65;19.83;;;-3.90;99.90;;;;;;5027236;28;20408;-66
2022/12/12 07:55:09;;;;;;;64.68;22.40;;;-3.60;99.90;;;;;;5027565;28;20392;-67
2022/12/12 07:57:36;;;;;;;56.58;20.05;;;-3.30;99.90;;;;;;5027129;28;20401;-68
2022/12/12 08:00:07;;;;;;;59.97;19.98;;;-3.40;99.90;;;;;;5027249;28;20041;-69
2022/12/12 08:02:33;;;;;;;66.75;21.15;;;-3.40;99.90;;;;;;5026970;28;20044;-68
2022/12/12 08:04:58;;;;;;;55.95;20.85;;;-3.50;99.90;;;;;;5029694;28;20055;-66
2022/12/12 08:07:25;;;;;;;62.53;22.13;;;-3.40;99.90;;;;;;5031105;28;20037;-68
2022/12/12 08:09:51;;;;;;;63.42;23.63;;;-3.20;99.90;;;;;;5030480;28;20500;-69
2022/12/12 08:12:17;;;;;;;61.83;21.20;;;-3.30;99.90;;;;;;5031147;28;20540;-69
2022/12/12 08:14:42;;;;;;;58.58;21.10;;;-3.30;99.90;;;;;;5032048;28;20121;-68
2022/12/12 08:17:08;;;;;;;73.82;25.70;;;-3.40;99.90;;;;;;5031143;28;20045;-67
2022/12/12 08:19:34;;;;;;;67.22;25.35;;;-3.20;99.90;;;;;;5031219;28;20400;-68
2022/12/12 08:22:00;;;;;;;71.55;25.48;;;-3.30;99.90;;;;;;5031017;28;20388;-67
2022/12/12 08:24:27;;;;;;;63.20;22.92;;;-3.30;99.90;;;;;;5031524;28;20041;-69
2022/12/12 08:26:53;;;;;;;103.82;33.53;;;-3.50;99.90;;;;;;5030722;28;20406;-66
2022/12/12 08:29:19;;;;;;;79.43;25.90;;;-3.50;99.90;;;;;;5030936;28;20064;-67
2022/12/12 08:31:45;;;;;;;62.40;23.67;;;-3.40;99.90;;;;;;5012914;28;20041;-67
2022/12/12 08:34:11;;;;;;;54.42;20.20;;;-3.20;99.90;;;;;;5031643;28;20562;-70
2022/12/12 08:36:37;;;;;;;68.97;24.80;;;-3.30;99.90;;;;;;5030732;28;20033;-69
2022/12/12 08:39:08;;;;;;;60.17;21.55;;;-3.20;99.90;;;;;;5030413;28;20511;-68
2022/12/12 08:41:38;;;;;;;56.30;21.48;;;-3.10;99.90;;;;;;5030710;28;20039;-67
2022/12/12 08:44:04;;;;;;;49.60;18.83;;;-3.10;99.90;;;;;;5030844;28;20552;-67
2022/12/12 08:46:30;;;;;;;50.20;19.85;;;-3.10;99.90;;;;;;5030406;28;20041;-66
2022/12/12 08:48:56;;;;;;;57.38;20.50;;;-3.40;99.90;;;;;;5030319;28;20052;-69
2022/12/12 08:51:22;;;;;;;48.95;19.45;;;-3.30;99.90;;;;;;5030209;28;20113;-66
2022/12/12 08:53:50;;;;;;;60.97;20.85;;;-3.40;99.90;;;;;;5030483;28;20036;-69
2022/12/12 08:56:16;;;;;;;58.85;21.40;;;-3.20;99.90;;;;;;5030663;28;20045;-66
2022/12/12 08:58:43;;;;;;;64.40;19.10;;;-3.40;99.90;;;;;;5030654;28;20412;-66
2022/12/12 09:01:13;;;;;;;51.35;20.05;;;-3.60;99.90;;;;;;5029880;28;20044;-67
2022/12/12 09:03:39;;;;;;;62.05;23.30;;;-3.60;99.90;;;;;;5029984;28;20045;-66
2022/12/12 09:06:07;;;;;;;52.50;20.20;;;-3.40;99.90;;;;;;5030239;28;20450;-67
2022/12/12 09:08:33;;;;;;;68.10;26.65;;;-3.30;99.90;;;;;;5029968;28;20045;-66
2022/12/12 09:10:59;;;;;;;60.03;23.00;;;-3.20;99.90;;;;;;5028723;28;20512;-66
2022/12/12 09:13:25;;;;;;;60.38;22.05;;;-3.10;99.90;;;;;;5030783;28;20045;-68
2022/12/12 09:15:51;;;;;;;55.88;22.50;;;-3.00;99.90;;;;;;5029342;28;20463;-68
2022/12/12 09:18:18;;;;;;;54.35;19.63;;;-3.10;99.90;;;;;;5030046;28;20132;-69
2022/12/12 09:20:52;;;;;;;52.83;19.92;;;-3.00;99.90;;;;;;5030275;28;20049;-69
2022/12/12 09:23:18;;;;;;;52.00;19.88;;;-3.10;99.90;;;;;;5029731;28;20057;-66
2022/12/12 09:25:44;;;;;;;52.58;19.52;;;-3.20;99.90;;;;;;5030713;28;20033;-67
2022/12/12 09:28:11;;;;;;;56.45;20.52;;;-3.20;99.90;;;;;;5029780;28;20412;-69
2022/12/12 09:30:37;;;;;;;52.92;20.42;;;-3.10;99.90;;;;;;5029635;28;20310;-67
2022/12/12 09:33:03;;;;;;;62.35;20.48;;;-3.10;99.90;;;;;;5029084;28;20045;-67
2022/12/12 09:35:29;;;;;;;53.40;19.70;;;-3.10;99.90;;;;;;5030180;28;20045;-70
2022/12/12 09:37:55;;;;;;;60.00;21.23;;;-3.40;99.90;;;;;;5029581;28;20052;-69
2022/12/12 09:40:27;;;;;;;54.53;21.98;;;-3.40;99.90;;;;;;5029387;28;20040;-66
2022/12/12 09:42:54;;;;;;;59.90;21.45;;;-3.20;99.90;;;;;;5029380;28;20053;-67
2022/12/12 09:45:20;;;;;;;61.03;23.83;;;-3.10;99.90;;;;;;5030215;28;20037;-68
2022/12/12 09:47:49;;;;;;;53.83;21.25;;;-3.40;99.90;;;;;;5029751;28;20408;-70
2022/12/12 09:50:46;;;;;;;56.55;22.05;;;-3.60;99.90;;;;;;5029749;28;20045;-66
2022/12/12 09:53:17;;;;;;;52.20;20.88;;;-3.90;99.90;;;;;;5028334;28;20103;-70
2022/12/12 09:56:03;;;;;;;56.22;22.05;;;-3.80;99.90;;;;;;5029820;28;20072;-70
2022/12/12 09:58:39;;;;;;;71.90;20.05;;;-3.60;99.90;;;;;;5029183;28;20045;-67
2022/12/12 10:01:04;;;;;;;58.75;20.38;;;-3.50;99.90;;;;;;5011327;28;20065;-66
2022/12/12 10:03:48;;;;;;;55.42;21.25;;;-3.50;99.90;;;;;;5029060;28;20096;-65
2022/12/12 10:06:16;;;;;;;72.00;23.23;;;-3.40;99.90;;;;;;5029253;28;20061;-70
2022/12/12 10:08:56;;;;;;;64.82;22.63;;;-3.20;99.90;;;;;;5029089;28;20049;-68
2022/12/12 10:11:51;;;;;;;67.65;25.15;;;-2.90;99.90;;;;;;5029015;28;20072;-69
2022/12/12 10:14:25;;;;;;;55.95;20.98;;;-2.90;99.90;;;;;;5028767;28;20041;-69
2022/12/12 10:16:51;;;;;;;67.93;23.67;;;-2.90;99.90;;;;;;5009780;28;20168;-66
2022/12/12 10:19:25;;;;;;;72.88;23.48;;;-2.90;99.90;;;;;;5029208;28;20115;-66
2022/12/12 10:21:53;;;;;;;69.30;25.40;;;-3.00;99.90;;;;;;5028806;28;20500;-69
2022/12/12 10:25:04;;;;;;;80.55;28.35;;;-3.00;99.90;;;;;;5028280;28;20049;-66
2022/12/12 10:27:30;;;;;;;99.13;32.75;;;-3.10;99.90;;;;;;4997247;28;20114;-68
2022/12/12 10:30:01;;;;;;;73.63;26.33;;;-2.90;99.90;;;;;;5028353;28;20049;-68
2022/12/12 10:32:55;;;;;;;62.80;23.25;;;-3.10;99.90;;;;;;5028171;28;20127;-69
2022/12/12 10:36:02;;;;;;;70.78;27.13;;;-3.00;99.90;;;;;;4997916;28;20044;-68
2022/12/12 10:39:02;;;;;;;72.90;26.35;;;-3.00;99.90;;;;;;4989182;28;20658;-68
2022/12/12 10:41:46;;;;;;;71.35;24.02;;;-2.90;99.90;;;;;;5028668;28;20095;-69
2022/12/12 10:44:36;;;;;;;60.83;22.65;;;-2.80;99.90;;;;;;5028464;28;20132;-69
2022/12/12 10:47:07;;;;;;;74.70;25.10;;;-3.00;99.90;;;;;;5028539;28;20042;-68
2022/12/12 10:49:34;;;;;;;68.63;23.25;;;-3.20;99.90;;;;;;5028254;28;20041;-68
2022/12/12 10:52:03;;;;;;;58.75;22.65;;;-3.00;99.90;;;;;;5028061;28;20030;-69
2022/12/12 10:54:43;;;;;;;58.20;22.90;;;-3.00;99.90;;;;;;5028331;28;20120;-68
2022/12/12 10:57:18;;;;;;;85.70;32.50;;;-3.00;99.90;;;;;;5028086;28;20065;-70
2022/12/12 10:59:48;;;;;;;71.18;28.65;;;-2.70;99.90;;;;;;5028472;28;20276;-69
2022/12/12 11:02:40;;;;;;;64.13;23.00;;;-2.70;99.90;;;;;;5028444;28;20041;-67
2022/12/12 11:05:09;;;;;;;188.02;65.50;;;-2.70;99.90;;;;;;5026948;28;20061;-69
2022/12/12 11:07:38;;;;;;;70.15;25.90;;;-2.70;99.90;;;;;;5025582;28;20120;-68
2022/12/12 11:10:19;;;;;;;74.70;26.30;;;-2.70;99.90;;;;;;5012744;28;20527;-67
2022/12/12 11:12:54;;;;;;;78.90;27.25;;;-2.80;99.90;;;;;;5028545;28;20037;-70
2022/12/12 11:15:19;;;;;;;77.28;26.80;;;-2.80;99.90;;;;;;5026215;28;20049;-67
2022/12/12 11:17:48;;;;;;;72.72;27.05;;;-2.80;99.90;;;;;;5027770;28;20388;-70
2022/12/12 11:20:17;;;;;;;68.38;24.48;;;-2.60;99.90;;;;;;5028350;28;20120;-68
2022/12/12 11:22:43;;;;;;;67.35;23.15;;;-2.60;99.90;;;;;;5028634;28;20393;-68
2022/12/12 11:25:32;;;;;;;69.22;24.13;;;-2.60;99.90;;;;;;5027964;28;20591;-69
2022/12/12 11:28:02;;;;;;;78.50;32.28;;;-2.90;99.90;;;;;;5026921;28;20141;-68
2022/12/12 11:30:36;;;;;;;63.92;24.70;;;-2.70;99.90;;;;;;5027985;28;20039;-66
2022/12/12 11:33:05;;;;;;;61.70;23.88;;;-2.60;99.90;;;;;;5027418;28;20116;-69
2022/12/12 11:35:36;;;;;;;62.35;23.33;;;-2.70;99.90;;;;;;5028193;28;20041;-68
2022/12/12 11:38:30;;;;;;;61.22;23.33;;;-2.60;99.90;;;;;;5027285;28;20120;-68
2022/12/12 11:41:06;;;;;;;56.00;22.20;;;-3.10;99.90;;;;;;5016057;28;20060;-68
2022/12/12 11:43:48;;;;;;;61.25;21.52;;;-3.00;99.90;;;;;;5027552;28;20037;-68
2022/12/12 11:46:14;;;;;;;56.03;23.17;;;-2.80;99.90;;;;;;5027713;28;20029;-69
2022/12/12 11:48:51;;;;;;;52.13;20.10;;;-2.40;99.90;;;;;;5027489;28;20045;-70
2022/12/12 11:51:38;;;;;;;63.10;23.42;;;-2.30;99.90;;;;;;5027260;28;20045;-68
2022/12/12 11:54:21;;;;;;;68.32;25.45;;;-2.40;99.90;;;;;;5027754;28;20033;-68
2022/12/12 11:56:56;;;;;;;65.32;23.02;;;-2.40;99.90;;;;;;5027022;28;20045;-69
2022/12/12 11:59:43;;;;;;;66.28;23.73;;;-2.30;99.90;;;;;;5027250;28;20044;-70
2022/12/12 12:02:27;;;;;;;66.60;23.92;;;-2.30;99.90;;;;;;5009369;28;20080;-70
2022/12/12 12:04:59;;;;;;;90.35;34.20;;;-2.20;99.90;;;;;;5027557;28;20041;-71
2022/12/12 12:07:25;;;;;;;74.43;27.58;;;-2.30;99.90;;;;;;5027476;28;20045;-68
2022/12/12 12:10:20;;;;;;;71.20;26.73;;;-2.30;99.90;;;;;;5025532;28;20450;-65
2022/12/12 12:12:53;;;;;;;76.28;29.13;;;-2.30;99.90;;;;;;5026452;28;20264;-65
2022/12/12 12:15:45;;;;;;;73.65;26.60;;;-2.20;99.90;;;;;;5026619;28;20045;-67
2022/12/12 12:19:02;;;;;;;76.45;28.15;;;-2.30;99.90;;;;;;4997896;28;20029;-65
2022/12/12 12:21:43;;;;;;;68.75;26.98;;;-2.20;99.90;;;;;;4953003;28;20037;-67
2022/12/12 12:24:53;;;;;;;74.97;31.33;;;-2.20;99.90;;;;;;5025643;28;20053;-68
2022/12/12 12:27:36;;;;;;;78.53;30.63;;;-2.00;99.90;;;;;;4954058;28;20035;-67
2022/12/12 12:30:14;;;;;;;95.60;36.65;;;-2.00;99.90;;;;;;5026783;28;20534;-67
2022/12/12 12:33:11;;;;;;;82.43;34.15;;;-2.10;99.90;;;;;;5026997;28;20041;-65
2022/12/12 12:35:46;;;;;;;98.25;39.33;;;-2.20;99.90;;;;;;5027156;28;20134;-66
2022/12/12 12:38:17;;;;;;;76.40;29.63;;;-2.30;99.90;;;;;;5027294;28;20052;-66
2022/12/12 12:41:02;;;;;;;75.82;31.80;;;-2.50;99.90;;;;;;5027342;28;20037;-67
2022/12/12 12:43:36;;;;;;;116.05;39.65;;;-2.70;99.90;;;;;;5027383;28;20053;-66
2022/12/12 12:46:26;;;;;;;98.30;35.95;;;-2.60;99.90;;;;;;5026772;28;20042;-67
2022/12/12 12:49:05;;;;;;;90.35;34.65;;;-2.50;99.90;;;;;;5026570;28;20120;-67
2022/12/12 12:51:44;;;;;;;72.22;26.48;;;-2.60;99.90;;;;;;5029916;28;20041;-67
2022/12/12 12:54:15;;;;;;;69.07;27.73;;;-2.80;99.90;;;;;;5030022;28;20531;-67
2022/12/12 12:57:09;;;;;;;74.68;28.58;;;-2.80;99.90;;;;;;5030427;28;20048;-66
2022/12/12 12:59:40;;;;;;;99.80;37.35;;;-2.70;99.90;;;;;;5022270;28;20525;-65
2022/12/12 13:02:29;;;;;;;61.15;25.90;;;-2.70;99.90;;;;;;5030772;28;20151;-67
2022/12/12 13:05:15;;;;;;;69.07;25.75;;;-2.70;99.90;;;;;;5030115;28;20041;-67